Time;durP1;ratioP1;P1;durP2;ratioP2;P2;SDS_P1;SDS_P2;PMS_P1;PMS_P2;Temp;Humidity;BMP_temperature;BMP_pressure;BME280_temperature;BME280_humidity;BME280_pressure;Samples;Min_cycle;Max_cycle;Signal;HPM_P1;HPM_P2
2022/08/03 00:01:02;;;;;;;8.43;7.70;;;22.50;95.90;;;;;;4996195;28;20805;-83
2022/08/03 00:03:28;;;;;;;11.23;7.90;;;22.50;96.20;;;;;;4978630;28;20448;-81
2022/08/03 00:05:55;;;;;;;8.30;7.60;;;22.40;96.60;;;;;;4977664;28;20453;-83
2022/08/03 00:08:23;;;;;;;9.27;8.43;;;22.50;97.10;;;;;;4977186;28;20449;-83
2022/08/03 00:10:50;;;;;;;8.70;7.90;;;22.40;97.90;;;;;;4977371;28;20468;-83
2022/08/03 00:13:18;;;;;;;9.93;8.50;;;22.30;98.70;;;;;;4977258;28;20470;-84
2022/08/03 00:15:45;;;;;;;9.70;8.13;;;22.20;99.40;;;;;;4981105;28;20444;-84
2022/08/03 00:18:12;;;;;;;10.57;9.67;;;22.30;99.90;;;;;;4979405;28;20476;-82
2022/08/03 00:20:38;;;;;;;9.10;8.30;;;22.30;99.90;;;;;;4977628;28;20464;-83
2022/08/03 00:23:05;;;;;;;9.17;8.27;;;22.30;99.90;;;;;;4978176;28;20452;-83
2022/08/03 00:25:34;;;;;;;9.10;8.00;;;22.30;99.90;;;;;;4978652;28;20432;-84
2022/08/03 00:28:01;;;;;;;8.77;7.77;;;22.20;99.90;;;;;;4976152;28;20838;-84
2022/08/03 00:30:27;;;;;;;9.53;8.33;;;22.20;99.90;;;;;;4977068;28;20543;-83
2022/08/03 00:32:54;;;;;;;8.93;7.77;;;22.10;99.90;;;;;;4977102;28;20495;-82
2022/08/03 00:35:21;;;;;;;11.97;9.77;;;22.00;99.90;;;;;;4974545;28;20448;-84
2022/08/03 00:37:48;;;;;;;11.03;9.77;;;22.00;99.90;;;;;;4992541;28;20452;-81
2022/08/03 00:40:15;;;;;;;10.60;9.60;;;21.90;99.90;;;;;;4984639;28;20468;-82
2022/08/03 00:42:49;;;;;;;9.17;8.17;;;21.90;99.90;;;;;;4975896;28;20448;-85
2022/08/03 00:45:16;;;;;;;10.00;9.00;;;21.90;99.90;;;;;;4976606;28;20443;-84
2022/08/03 00:47:43;;;;;;;9.70;8.80;;;21.80;99.90;;;;;;4976633;28;20447;-83
2022/08/03 00:50:10;;;;;;;9.67;8.50;;;21.70;99.90;;;;;;4977510;28;20484;-83
2022/08/03 00:52:37;;;;;;;10.17;8.90;;;21.70;99.90;;;;;;4979230;28;20440;-81
2022/08/03 00:55:04;;;;;;;9.50;8.50;;;21.60;99.90;;;;;;4977243;28;20452;-83
2022/08/03 00:57:32;;;;;;;14.47;8.70;;;21.70;99.90;;;;;;4977375;28;20457;-83
2022/08/03 01:00:00;;;;;;;11.03;8.10;;;21.70;99.90;;;;;;4976908;28;20923;-82
2022/08/03 01:02:27;;;;;;;9.03;7.97;;;21.60;99.90;;;;;;4975828;28;20453;-83
2022/08/03 01:04:55;;;;;;;11.23;8.60;;;21.60;99.90;;;;;;4975874;28;20456;-83
2022/08/03 01:07:33;;;;;;;10.67;8.87;;;21.60;99.90;;;;;;4976930;28;20452;-84
2022/08/03 01:10:06;;;;;;;12.30;8.77;;;21.70;99.90;;;;;;4976074;28;20494;-84
2022/08/03 01:12:43;;;;;;;10.13;8.37;;;21.60;99.90;;;;;;4975677;28;20479;-83
2022/08/03 01:15:19;;;;;;;11.47;8.70;;;21.60;99.90;;;;;;4979401;28;20480;-83
2022/08/03 01:17:51;;;;;;;8.80;7.90;;;21.60;99.90;;;;;;4984561;28;20444;-83
2022/08/03 01:20:21;;;;;;;8.80;8.00;;;21.60;99.90;;;;;;4977594;28;20473;-83
2022/08/03 01:23:29;;;;;;;11.03;9.87;;;21.60;99.90;;;;;;4987315;28;20455;-80
2022/08/03 01:26:09;;;;;;;8.67;7.77;;;21.60;99.90;;;;;;4974744;28;20444;-83
2022/08/03 01:28:51;;;;;;;11.20;8.50;;;21.40;99.90;;;;;;4978439;28;20540;-82
2022/08/03 01:31:22;;;;;;;8.83;8.13;;;21.40;99.90;;;;;;4977368;28;20450;-82
2022/08/03 01:33:54;;;;;;;8.13;7.20;;;21.40;99.90;;;;;;4977038;28;20861;-83
2022/08/03 01:36:25;;;;;;;7.80;7.10;;;21.30;99.90;;;;;;4975289;28;20515;-83
2022/08/03 01:38:58;;;;;;;9.20;8.20;;;21.30;99.90;;;;;;4976010;28;20475;-82
2022/08/03 01:41:29;;;;;;;9.07;8.27;;;21.30;99.90;;;;;;4976038;28;20448;-83
2022/08/03 01:43:59;;;;;;;9.20;8.10;;;21.30;99.90;;;;;;4991897;28;20443;-82
2022/08/03 01:46:30;;;;;;;10.80;7.80;;;21.30;99.90;;;;;;4982560;28;20800;-83
2022/08/03 01:48:58;;;;;;;8.90;8.10;;;21.20;99.90;;;;;;4975898;28;20484;-83
2022/08/03 01:51:25;;;;;;;10.57;8.43;;;21.20;99.90;;;;;;4976175;28;20449;-84
2022/08/03 01:53:53;;;;;;;9.10;8.30;;;21.20;99.90;;;;;;4975886;28;20825;-82
2022/08/03 01:56:24;;;;;;;8.97;8.07;;;21.10;99.90;;;;;;4975589;28;20456;-84
2022/08/03 01:58:52;;;;;;;8.83;7.93;;;21.10;99.90;;;;;;4975250;28;20480;-83
2022/08/03 02:01:22;;;;;;;7.97;7.20;;;21.10;99.90;;;;;;4975516;28;20453;-84
2022/08/03 02:03:51;;;;;;;7.83;7.13;;;21.10;99.90;;;;;;4976455;28;20866;-83
2022/08/03 02:06:19;;;;;;;7.43;6.83;;;21.00;99.90;;;;;;4975845;28;20452;-83
2022/08/03 02:08:48;;;;;;;9.10;7.50;;;21.00;99.90;;;;;;4975857;28;20488;-84
2022/08/03 02:11:15;;;;;;;7.80;7.20;;;21.00;99.90;;;;;;4988042;28;20452;-82
2022/08/03 02:13:43;;;;;;;7.80;6.97;;;21.00;99.90;;;;;;4990056;28;20452;-84
2022/08/03 02:16:11;;;;;;;8.17;7.47;;;21.00;99.90;;;;;;4990408;28;20448;-83
2022/08/03 02:18:38;;;;;;;7.33;6.60;;;21.00;99.90;;;;;;4990846;28;20444;-82
2022/08/03 02:21:09;;;;;;;6.77;6.20;;;20.90;99.90;;;;;;4990647;28;20437;-83
2022/08/03 02:23:36;;;;;;;7.77;6.80;;;20.90;99.90;;;;;;4989649;28;20495;-82
2022/08/03 02:26:05;;;;;;;7.10;6.50;;;20.90;99.90;;;;;;4988820;28;20475;-84
2022/08/03 02:28:34;;;;;;;8.77;7.90;;;20.80;99.90;;;;;;4975219;28;20452;-84
2022/08/03 02:31:05;;;;;;;8.83;7.93;;;20.70;99.90;;;;;;4974939;28;20445;-83
2022/08/03 02:33:34;;;;;;;9.97;8.20;;;20.70;99.90;;;;;;4975480;28;20475;-83
2022/08/03 02:36:02;;;;;;;9.00;8.07;;;20.60;99.90;;;;;;4974955;28;20452;-83
2022/08/03 02:38:34;;;;;;;9.10;8.30;;;20.60;99.90;;;;;;4978187;28;20456;-83
2022/08/03 02:41:04;;;;;;;10.90;9.80;;;20.50;99.90;;;;;;4978903;28;20451;-84
2022/08/03 02:43:34;;;;;;;10.27;9.27;;;20.50;99.90;;;;;;4978174;28;20456;-83
2022/08/03 02:46:00;;;;;;;10.03;8.97;;;20.50;99.90;;;;;;4978217;28;20455;-84
2022/08/03 02:48:30;;;;;;;9.87;8.80;;;20.50;99.90;;;;;;4989130;28;20452;-82
2022/08/03 02:50:59;;;;;;;12.60;9.17;;;20.50;99.90;;;;;;5001140;28;20432;-82
2022/08/03 02:53:26;;;;;;;11.33;10.27;;;20.40;99.90;;;;;;4993172;28;20448;-82
2022/08/03 02:55:56;;;;;;;10.83;9.33;;;20.40;99.90;;;;;;4978467;28;20436;-84
2022/08/03 02:58:24;;;;;;;10.70;9.60;;;20.50;99.90;;;;;;4978630;28;20448;-84
2022/08/03 03:00:51;;;;;;;10.60;9.50;;;20.40;99.90;;;;;;4980799;28;20468;-84
2022/08/03 03:03:19;;;;;;;11.37;9.83;;;20.50;99.90;;;;;;4983339;28;20863;-84
2022/08/03 03:05:47;;;;;;;13.37;10.70;;;20.50;99.90;;;;;;4984784;28;20440;-80
2022/08/03 03:08:15;;;;;;;11.40;9.57;;;20.50;99.90;;;;;;4979023;28;20440;-83
2022/08/03 03:10:42;;;;;;;10.40;9.37;;;20.40;99.90;;;;;;4978061;28;20515;-82
2022/08/03 03:13:11;;;;;;;10.83;8.10;;;20.40;99.90;;;;;;4977828;28;20452;-83
2022/08/03 03:15:39;;;;;;;9.70;8.70;;;20.40;99.90;;;;;;4978598;28;20879;-83
2022/08/03 03:18:08;;;;;;;9.80;8.93;;;20.40;99.90;;;;;;4979380;28;20452;-82
2022/08/03 03:20:37;;;;;;;10.17;9.17;;;20.40;99.90;;;;;;4978496;28;20988;-83
2022/08/03 03:23:04;;;;;;;10.07;8.77;;;20.30;99.90;;;;;;4982924;28;20452;-81
2022/08/03 03:25:33;;;;;;;9.83;8.90;;;20.30;99.90;;;;;;4979234;28;20980;-83
2022/08/03 03:28:01;;;;;;;12.27;9.90;;;20.20;99.90;;;;;;4981644;28;20538;-83
2022/08/03 03:30:30;;;;;;;12.70;11.50;;;20.30;99.90;;;;;;4981402;28;20499;-83
2022/08/03 03:32:58;;;;;;;12.27;9.87;;;20.20;99.90;;;;;;4977311;28;20883;-82
2022/08/03 03:35:25;;;;;;;13.00;9.13;;;20.20;99.90;;;;;;4977757;28;20452;-83
2022/08/03 03:37:52;;;;;;;10.47;9.47;;;20.20;99.90;;;;;;4978925;28;20452;-82
2022/08/03 03:40:21;;;;;;;13.03;9.00;;;20.20;99.90;;;;;;4977275;28;20900;-82
2022/08/03 03:42:47;;;;;;;11.50;9.70;;;20.10;99.90;;;;;;4978203;28;20457;-83
2022/08/03 03:45:15;;;;;;;11.13;9.80;;;20.10;99.90;;;;;;4978167;28;20452;-83
2022/08/03 03:47:43;;;;;;;10.03;8.93;;;20.10;99.90;;;;;;4977290;28;20455;-83
2022/08/03 03:50:10;;;;;;;14.13;10.17;;;20.10;99.90;;;;;;4977279;28;20494;-83
2022/08/03 03:52:37;;;;;;;10.17;9.27;;;20.10;99.90;;;;;;4977799;28;20555;-82
2022/08/03 03:55:05;;;;;;;11.90;10.80;;;20.00;99.90;;;;;;4977093;28;20957;-82
2022/08/03 03:57:31;;;;;;;11.27;10.00;;;20.10;99.90;;;;;;4977425;28;20448;-83
2022/08/03 03:59:58;;;;;;;12.43;10.23;;;20.10;99.90;;;;;;4991441;23;20507;-79
2022/08/03 04:02:25;;;;;;;10.50;9.40;;;20.00;99.90;;;;;;4976174;28;20459;-78
2022/08/03 04:13:20;;;;;;;10.13;9.13;;;19.90;99.90;;;;;;4975741;28;20480;-80
2022/08/03 04:15:48;;;;;;;9.33;8.47;;;20.00;99.90;;;;;;4978224;28;20448;-78
2022/08/03 04:18:16;;;;;;;9.57;8.77;;;20.00;99.90;;;;;;4974922;28;20440;-78
2022/08/03 04:20:47;;;;;;;11.50;9.67;;;20.00;99.90;;;;;;4976089;28;20572;-78
2022/08/03 04:23:16;;;;;;;10.70;8.87;;;20.00;99.90;;;;;;4976292;28;20452;-79
2022/08/03 04:25:44;;;;;;;11.33;9.47;;;20.00;99.90;;;;;;4975948;28;20467;-79
2022/08/03 04:28:12;;;;;;;8.90;8.10;;;20.00;99.90;;;;;;4979795;28;20480;-78
2022/08/03 04:30:46;;;;;;;9.93;8.93;;;20.00;99.90;;;;;;4982511;28;20488;-78
2022/08/03 04:33:13;;;;;;;10.47;8.83;;;20.00;99.90;;;;;;4979536;28;20478;-78
2022/08/03 04:35:41;;;;;;;10.80;9.57;;;20.00;99.90;;;;;;4979790;28;20441;-78
2022/08/03 04:38:13;;;;;;;10.30;9.20;;;20.00;99.90;;;;;;4997500;28;20456;-78
2022/08/03 04:40:43;;;;;;;11.67;9.20;;;20.00;99.90;;;;;;4986218;28;20801;-78
2022/08/03 04:43:12;;;;;;;11.33;10.33;;;20.00;99.90;;;;;;4977335;28;20444;-79
2022/08/03 04:45:40;;;;;;;14.80;9.10;;;20.00;99.90;;;;;;4977948;28;20449;-78
2022/08/03 04:48:07;;;;;;;10.93;9.50;;;20.00;99.90;;;;;;4975352;28;20448;-78
2022/08/03 04:50:34;;;;;;;15.63;9.97;;;20.00;99.90;;;;;;4979159;28;20484;-78
2022/08/03 04:53:02;;;;;;;13.37;9.77;;;20.00;99.90;;;;;;4978715;28;20459;-77
2022/08/03 04:55:31;;;;;;;11.10;10.07;;;20.00;99.90;;;;;;4974676;28;20458;-80
2022/08/03 04:57:58;;;;;;;11.47;9.77;;;20.00;99.90;;;;;;4980853;28;20444;-77
2022/08/03 05:00:26;;;;;;;11.03;9.87;;;20.00;99.90;;;;;;4977127;28;20480;-78
2022/08/03 05:02:54;;;;;;;10.80;9.03;;;20.00;99.90;;;;;;4975289;28;20447;-78
2022/08/03 05:05:21;;;;;;;12.07;9.87;;;20.10;99.90;;;;;;4976157;28;20460;-77
2022/08/03 05:07:48;;;;;;;13.87;9.70;;;20.20;99.90;;;;;;4979665;28;20452;-78
2022/08/03 05:10:16;;;;;;;11.27;9.40;;;20.40;99.90;;;;;;4981603;28;20477;-78
2022/08/03 05:12:45;;;;;;;11.40;8.60;;;20.90;99.90;;;;;;4985124;28;20448;-78
2022/08/03 05:15:12;;;;;;;12.70;9.17;;;21.30;99.90;;;;;;4981368;28;20440;-79
2022/08/03 05:17:39;;;;;;;13.80;9.10;;;21.70;99.90;;;;;;4982246;28;20472;-78
2022/08/03 05:20:07;;;;;;;9.83;8.80;;;21.90;99.90;;;;;;4984200;28;20476;-79
2022/08/03 05:22:33;;;;;;;12.30;8.83;;;22.20;99.90;;;;;;4979286;28;20445;-79
2022/08/03 05:25:01;;;;;;;10.03;8.80;;;22.70;99.90;;;;;;4978470;28;20447;-79
2022/08/03 05:27:27;;;;;;;9.30;8.03;;;23.30;99.90;;;;;;4985552;28;20459;-80
2022/08/03 05:29:55;;;;;;;12.80;7.50;;;23.60;99.90;;;;;;4983958;28;20867;-79
2022/08/03 05:32:22;;;;;;;12.13;7.60;;;24.10;99.90;;;;;;4974989;28;20456;-79
2022/08/03 05:34:49;;;;;;;7.07;6.40;;;24.50;98.90;;;;;;4975345;28;20449;-79
2022/08/03 05:37:15;;;;;;;7.97;6.70;;;24.70;97.60;;;;;;4975945;28;20510;-78
2022/08/03 05:39:42;;;;;;;7.30;6.57;;;25.00;96.40;;;;;;4976910;28;20472;-79
2022/08/03 05:42:09;;;;;;;9.00;6.83;;;25.40;95.10;;;;;;4977551;28;20456;-78
2022/08/03 05:44:37;;;;;;;6.37;5.57;;;25.50;94.20;;;;;;4977662;28;20478;-78
2022/08/03 05:47:05;;;;;;;6.83;5.80;;;25.90;93.20;;;;;;4970984;28;21077;-79
2022/08/03 05:49:32;;;;;;;10.50;5.73;;;26.20;92.10;;;;;;4974030;28;20451;-78
2022/08/03 05:51:58;;;;;;;6.53;5.50;;;26.20;91.10;;;;;;4976115;28;20473;-78
2022/08/03 05:54:26;;;;;;;7.80;7.10;;;26.00;91.30;;;;;;4976688;28;20457;-78
2022/08/03 05:56:52;;;;;;;7.20;6.13;;;26.00;91.30;;;;;;4975877;28;20536;-79
2022/08/03 05:59:20;;;;;;;10.20;6.77;;;26.40;91.00;;;;;;4975319;28;20513;-79
2022/08/03 06:01:47;;;;;;;6.43;5.93;;;26.80;90.00;;;;;;4975072;28;20476;-79
2022/08/03 06:04:15;;;;;;;10.90;6.93;;;27.10;88.20;;;;;;4975588;28;20488;-78
2022/08/03 06:06:42;;;;;;;6.87;6.27;;;27.50;85.90;;;;;;4976431;28;20479;-79
2022/08/03 06:09:09;;;;;;;7.07;5.70;;;27.80;84.10;;;;;;4975091;28;20446;-78
2022/08/03 06:11:36;;;;;;;8.13;5.53;;;28.00;82.20;;;;;;4965360;28;20496;-79
2022/08/03 06:14:03;;;;;;;6.47;5.97;;;28.30;80.40;;;;;;4959104;28;20517;-78
2022/08/03 06:16:29;;;;;;;10.30;5.20;;;28.60;79.70;;;;;;4970164;28;20448;-78
2022/08/03 06:18:56;;;;;;;6.30;5.80;;;29.00;78.00;;;;;;4978843;28;20447;-79
2022/08/03 06:21:24;;;;;;;6.70;5.23;;;29.20;75.70;;;;;;4973919;28;20807;-79
2022/08/03 06:23:51;;;;;;;8.60;5.03;;;29.70;74.20;;;;;;4971577;28;20447;-78
2022/08/03 06:26:17;;;;;;;5.27;4.73;;;29.90;72.10;;;;;;4980430;28;20454;-79
2022/08/03 06:28:44;;;;;;;9.03;5.20;;;30.30;71.00;;;;;;4976265;28;20461;-79
2022/08/03 06:31:11;;;;;;;5.63;5.10;;;30.50;69.50;;;;;;4970887;28;20511;-79
2022/08/03 06:33:38;;;;;;;5.63;4.93;;;30.50;68.50;;;;;;4974578;28;20455;-79
2022/08/03 06:36:05;;;;;;;6.10;5.10;;;30.80;67.40;;;;;;4973746;28;20567;-79
2022/08/03 06:38:33;;;;;;;6.50;5.90;;;30.80;66.90;;;;;;4973190;28;20455;-78
2022/08/03 06:41:00;;;;;;;6.30;5.10;;;31.50;66.00;;;;;;4975871;28;20471;-84
2022/08/03 06:43:27;;;;;;;6.47;5.10;;;32.00;63.60;;;;;;4995774;28;20432;-82
2022/08/03 06:45:53;;;;;;;5.93;5.43;;;31.90;62.30;;;;;;4992263;28;20441;-84
2022/08/03 06:48:26;;;;;;;5.53;4.83;;;32.10;61.20;;;;;;4983363;28;20430;-86
2022/08/03 06:50:53;;;;;;;6.10;5.43;;;31.50;63.10;;;;;;4986510;28;20805;-86
2022/08/03 06:53:20;;;;;;;6.37;5.77;;;31.90;62.10;;;;;;4988527;28;20468;-87
2022/08/03 06:55:48;;;;;;;4.93;4.53;;;32.60;60.40;;;;;;4991661;28;20456;-86
2022/08/03 06:58:15;;;;;;;5.60;5.17;;;32.70;58.80;;;;;;4983692;28;20457;-84
2022/08/03 07:00:41;;;;;;;6.23;5.63;;;32.90;58.80;;;;;;4973864;28;20467;-84
2022/08/03 07:03:08;;;;;;;6.20;5.70;;;33.60;57.80;;;;;;4968693;28;20448;-84
2022/08/03 07:05:35;;;;;;;5.30;4.80;;;33.50;57.20;;;;;;4971004;28;20454;-84
2022/08/03 07:08:02;;;;;;;6.17;5.57;;;33.40;57.10;;;;;;4994221;28;20507;-82
2022/08/03 07:10:29;;;;;;;5.33;4.37;;;33.20;56.80;;;;;;4989817;28;20487;-83
2022/08/03 07:12:57;;;;;;;5.37;4.87;;;33.30;56.70;;;;;;4973373;28;20455;-83
2022/08/03 07:15:23;;;;;;;4.90;4.43;;;33.20;56.00;;;;;;4976912;28;21001;-85
2022/08/03 07:17:50;;;;;;;5.57;5.07;;;33.30;56.00;;;;;;4972523;28;20451;-84
2022/08/03 07:20:18;;;;;;;6.13;4.60;;;33.40;56.70;;;;;;4973833;28;20459;-85
2022/08/03 07:22:44;;;;;;;4.53;3.90;;;33.30;56.20;;;;;;4975109;28;20506;-85
2022/08/03 07:25:11;;;;;;;4.80;4.20;;;34.00;55.40;;;;;;4975476;28;20461;-85
2022/08/03 07:27:38;;;;;;;5.03;4.63;;;33.90;53.90;;;;;;4974573;28;20455;-87
2022/08/03 07:30:08;;;;;;;4.70;4.30;;;34.30;54.30;;;;;;4973588;28;20463;-87
2022/08/03 07:32:35;;;;;;;6.57;4.83;;;35.20;53.00;;;;;;4974000;28;20450;-86
2022/08/03 07:35:02;;;;;;;5.70;4.20;;;35.40;51.70;;;;;;4979567;28;20416;-87
2022/08/03 07:37:30;;;;;;;5.17;4.10;;;35.90;50.40;;;;;;4991657;28;20454;-89
2022/08/03 07:39:57;;;;;;;6.43;4.53;;;36.10;49.70;;;;;;4989395;28;20460;-86
2022/08/03 07:42:24;;;;;;;5.60;4.20;;;36.10;48.90;;;;;;4973946;28;20493;-86
2022/08/03 07:44:51;;;;;;;4.77;3.57;;;36.00;49.10;;;;;;4976418;28;20570;-87
2022/08/03 07:47:20;;;;;;;5.77;3.87;;;36.60;47.80;;;;;;4982411;28;20822;-87
2022/08/03 07:49:46;;;;;;;6.07;4.50;;;35.60;48.40;;;;;;4992724;28;20463;-87
2022/08/03 07:54:58;;;;;;;5.43;4.87;;;36.40;48.00;;;;;;4973836;28;20490;-87
2022/08/03 07:57:24;;;;;;;4.33;3.93;;;37.20;47.30;;;;;;4973008;28;20456;-85
2022/08/03 07:59:51;;;;;;;4.67;4.23;;;38.00;45.90;;;;;;4972045;28;20485;-86
2022/08/03 08:02:19;;;;;;;4.23;3.90;;;37.60;45.70;;;;;;4972430;28;20575;-85
2022/08/03 08:04:46;;;;;;;5.50;4.00;;;38.20;45.60;;;;;;4974730;28;20444;-86
2022/08/03 08:07:13;;;;;;;4.13;3.83;;;38.60;44.50;;;;;;4974126;28;20459;-87
2022/08/03 08:09:40;;;;;;;5.77;4.03;;;39.00;43.50;;;;;;4975417;28;20494;-85
2022/08/03 08:12:07;;;;;;;4.70;4.30;;;38.10;43.90;;;;;;4980566;28;20448;-86
2022/08/03 08:14:34;;;;;;;4.50;4.10;;;37.10;45.70;;;;;;4977632;28;20447;-84
2022/08/03 08:17:01;;;;;;;5.67;4.20;;;36.90;46.30;;;;;;4981899;28;20519;-84
2022/08/03 08:19:29;;;;;;;3.77;3.47;;;37.60;45.10;;;;;;4999374;28;20452;-83
2022/08/03 08:21:56;;;;;;;4.27;3.70;;;38.60;43.50;;;;;;4997451;28;20500;-83
2022/08/03 08:24:22;;;;;;;7.40;3.93;;;38.80;42.30;;;;;;4983858;28;20532;-84
2022/08/03 08:26:49;;;;;;;3.83;3.53;;;39.30;41.90;;;;;;4974442;28;20602;-85
2022/08/03 08:29:16;;;;;;;4.00;3.30;;;40.50;40.50;;;;;;4977935;28;20449;-85
2022/08/03 08:31:42;;;;;;;4.10;3.70;;;40.20;39.80;;;;;;4992451;28;20441;-84
2022/08/03 08:34:09;;;;;;;3.27;2.97;;;40.80;39.60;;;;;;4989709;28;20441;-85
2022/08/03 08:36:37;;;;;;;4.27;3.07;;;41.70;37.50;;;;;;4974503;28;20938;-85
2022/08/03 08:39:04;;;;;;;2.83;2.27;;;42.20;36.80;;;;;;4975665;28;20441;-84
2022/08/03 08:41:33;;;;;;;11.00;3.20;;;42.10;34.70;;;;;;4974786;28;20485;-85
2022/08/03 08:44:00;;;;;;;4.47;2.50;;;42.50;34.70;;;;;;4982176;28;20445;-85
2022/08/03 08:46:29;;;;;;;3.20;2.40;;;42.60;33.90;;;;;;4980882;28;20441;-86
2022/08/03 08:48:57;;;;;;;3.10;2.80;;;42.50;33.30;;;;;;4980497;28;20907;-85
2022/08/03 08:51:29;;;;;;;2.93;2.60;;;42.80;33.50;;;;;;4973045;28;20465;-85
2022/08/03 08:54:02;;;;;;;3.27;2.97;;;42.30;33.80;;;;;;4977306;28;20441;-84
2022/08/03 08:56:30;;;;;;;2.50;2.10;;;41.90;33.50;;;;;;4979713;28;20441;-85
2022/08/03 08:58:59;;;;;;;3.63;2.20;;;41.90;33.80;;;;;;4981643;28;20441;-86
2022/08/03 09:01:26;;;;;;;3.03;2.00;;;42.40;33.00;;;;;;4975898;28;20481;-86
2022/08/03 09:03:54;;;;;;;3.10;2.30;;;43.00;31.50;;;;;;4975520;28;20433;-86
2022/08/03 09:06:20;;;;;;;2.50;2.30;;;43.20;31.10;;;;;;4981998;28;20452;-85
2022/08/03 09:08:47;;;;;;;2.40;1.97;;;44.10;30.00;;;;;;4993067;28;20455;-84
2022/08/03 09:11:15;;;;;;;2.60;2.40;;;44.10;30.00;;;;;;4976439;28;20471;-85
2022/08/03 09:13:42;;;;;;;2.43;2.23;;;43.40;30.30;;;;;;4973780;28;20838;-84
2022/08/03 09:16:11;;;;;;;3.67;3.00;;;44.30;30.10;;;;;;4974661;28;20459;-85
2022/08/03 09:18:39;;;;;;;2.50;1.83;;;44.80;29.10;;;;;;4971527;28;20468;-85
2022/08/03 09:21:18;;;;;;;2.23;2.03;;;44.50;28.90;;;;;;4975379;28;20870;-86
2022/08/03 09:23:46;;;;;;;5.10;2.10;;;43.30;29.40;;;;;;4974164;28;20934;-86
2022/08/03 09:26:20;;;;;;;2.83;1.63;;;43.30;29.60;;;;;;4974472;28;20453;-84
2022/08/03 09:28:47;;;;;;;4.13;1.77;;;44.30;29.20;;;;;;4973877;28;20956;-85
2022/08/03 09:31:13;;;;;;;2.47;2.03;;;44.60;28.30;;;;;;4975538;28;20827;-84
2022/08/03 09:33:47;;;;;;;2.40;1.67;;;44.60;28.40;;;;;;4987124;28;20464;-84
2022/08/03 09:36:39;;;;;;;3.07;1.90;;;44.90;28.40;;;;;;4992473;28;20516;-84
2022/08/03 09:39:09;;;;;;;1.90;1.70;;;44.30;28.80;;;;;;4974143;28;21029;-84
2022/08/03 09:41:38;;;;;;;2.67;1.80;;;44.30;28.80;;;;;;4973140;28;21009;-84
2022/08/03 09:44:05;;;;;;;2.30;2.10;;;44.50;28.80;;;;;;4983362;28;20456;-84
2022/08/03 09:46:33;;;;;;;3.03;1.77;;;44.30;28.50;;;;;;4975247;28;20496;-85
2022/08/03 09:49:10;;;;;;;2.03;1.80;;;45.20;28.00;;;;;;4997035;28;20570;-82
2022/08/03 09:51:37;;;;;;;5.93;3.17;;;42.90;28.30;;;;;;4993123;28;20504;-84
2022/08/03 09:54:07;;;;;;;2.70;1.63;;;42.50;30.00;;;;;;4976779;28;20476;-87
2022/08/03 09:56:46;;;;;;;4.83;1.90;;;43.40;29.10;;;;;;4973721;28;20477;-84
2022/08/03 09:59:24;;;;;;;4.23;1.70;;;43.20;28.60;;;;;;4974602;28;20445;-84
2022/08/03 10:01:51;;;;;;;3.30;1.90;;;43.50;28.90;;;;;;4974276;28;20939;-84
2022/08/03 10:04:18;;;;;;;2.10;1.90;;;43.90;28.80;;;;;;4975020;28;20556;-83
2022/08/03 10:06:45;;;;;;;3.70;2.70;;;43.40;29.10;;;;;;4974288;28;20445;-86
2022/08/03 10:09:14;;;;;;;2.40;1.83;;;43.20;29.50;;;;;;4973498;28;20965;-83
2022/08/03 10:11:42;;;;;;;2.30;2.10;;;44.00;28.70;;;;;;4975549;28;20505;-84
2022/08/03 10:14:18;;;;;;;3.10;2.13;;;44.70;27.90;;;;;;4989133;28;20425;-88
2022/08/03 10:16:46;;;;;;;1.70;1.60;;;44.90;27.50;;;;;;4994737;28;20433;-83
2022/08/03 10:19:14;;;;;;;3.07;2.00;;;44.60;27.50;;;;;;4975600;28;20461;-85
2022/08/03 10:21:43;;;;;;;1.70;1.60;;;44.10;27.90;;;;;;4973835;28;20527;-84
2022/08/03 10:24:11;;;;;;;2.33;2.13;;;42.90;27.90;;;;;;4972148;28;20835;-85
2022/08/03 10:26:39;;;;;;;2.03;1.80;;;44.00;27.80;;;;;;4972911;28;20453;-85
2022/08/03 10:29:18;;;;;;;2.57;2.20;;;44.70;27.30;;;;;;4972189;28;20459;-83
2022/08/03 10:31:47;;;;;;;1.90;1.80;;;44.50;26.50;;;;;;4976029;28;20827;-85
2022/08/03 10:34:19;;;;;;;1.80;1.57;;;44.40;26.20;;;;;;4985145;28;20453;-83
2022/08/03 10:36:47;;;;;;;2.23;2.03;;;44.50;26.70;;;;;;5015598;23;20498;-84
2022/08/03 10:39:15;;;;;;;3.37;3.00;;;44.30;26.90;;;;;;4993223;28;20444;-85
2022/08/03 10:41:45;;;;;;;2.30;1.90;;;44.30;26.10;;;;;;4991926;28;20486;-84
2022/08/03 10:44:17;;;;;;;1.87;1.77;;;45.20;25.90;;;;;;5000749;28;20460;-85
2022/08/03 10:46:46;;;;;;;2.83;1.80;;;45.30;25.50;;;;;;4992361;28;20537;-85
2022/08/03 10:49:14;;;;;;;2.30;1.97;;;45.70;25.00;;;;;;4992924;28;20455;-85
2022/08/03 10:51:41;;;;;;;2.03;1.70;;;45.30;25.00;;;;;;4998723;28;20436;-83
2022/08/03 10:57:33;;;;;;;2.43;1.93;;;43.90;26.60;;;;;;5016773;28;20440;-83
2022/08/03 10:57:45;;;;;;;1.70;1.60;;;45.30;25.90;;;;;;5017012;28;20456;-83
2022/08/03 11:00:14;;;;;;;1.80;1.70;;;44.80;25.20;;;;;;4998035;28;20443;-85
2022/08/03 11:03:05;;;;;;;2.80;2.27;;;44.30;26.60;;;;;;5007563;28;20514;-84
2022/08/03 11:05:33;;;;;;;2.43;2.23;;;43.40;26.70;;;;;;5008391;28;20450;-84
2022/08/03 11:08:30;;;;;;;2.20;2.00;;;42.50;27.70;;;;;;5000536;28;20474;-84
2022/08/03 11:10:59;;;;;;;1.90;1.80;;;44.00;27.20;;;;;;4998316;28;20479;-85
2022/08/03 11:13:30;;;;;;;2.90;2.10;;;44.80;26.50;;;;;;5003440;28;20472;-85
2022/08/03 11:16:01;;;;;;;2.63;1.90;;;46.00;25.80;;;;;;5009734;28;20452;-84
2022/08/03 11:18:28;;;;;;;2.03;1.90;;;46.10;25.00;;;;;;5002876;28;20472;-84
2022/08/03 11:20:56;;;;;;;2.30;1.93;;;45.80;25.00;;;;;;4999576;28;20970;-85
2022/08/03 11:23:42;;;;;;;6.90;2.27;;;46.00;25.00;;;;;;4996105;28;20490;-85
2022/08/03 11:26:13;;;;;;;3.20;3.00;;;45.40;25.40;;;;;;4995614;28;20444;-85
2022/08/03 11:28:40;;;;;;;3.27;2.17;;;45.70;25.50;;;;;;4996132;28;20472;-84
2022/08/03 11:31:46;;;;;;;3.60;2.67;;;45.60;25.50;;;;;;4995615;28;20443;-85
2022/08/03 11:34:15;;;;;;;4.30;2.50;;;47.00;24.60;;;;;;4995519;28;20444;-85
2022/08/03 11:37:20;;;;;;;2.87;2.50;;;46.70;24.40;;;;;;4994777;28;20467;-84
2022/08/03 11:39:48;;;;;;;3.53;2.33;;;46.40;24.80;;;;;;4995244;28;20455;-84
2022/08/03 11:42:40;;;;;;;2.73;2.53;;;46.90;24.80;;;;;;4994969;28;20484;-85
2022/08/03 11:45:10;;;;;;;2.67;2.47;;;47.10;24.50;;;;;;4995089;28;20451;-85
2022/08/03 11:47:40;;;;;;;3.10;2.30;;;48.00;23.90;;;;;;4994766;28;20532;-85
2022/08/03 11:50:07;;;;;;;2.60;2.40;;;47.10;24.00;;;;;;4995401;28;20479;-85
2022/08/03 11:52:37;;;;;;;2.43;2.20;;;47.10;24.20;;;;;;4994634;28;20448;-85
2022/08/03 11:55:19;;;;;;;2.53;2.33;;;47.50;24.20;;;;;;4996762;28;20703;-85
2022/08/03 11:57:46;;;;;;;2.53;2.33;;;49.10;23.30;;;;;;5004558;28;20472;-85
2022/08/03 12:00:25;;;;;;;2.87;2.37;;;48.40;23.30;;;;;;5008210;28;20447;-84
2022/08/03 12:02:58;;;;;;;2.67;2.47;;;48.00;23.50;;;;;;5010843;28;20487;-85
2022/08/03 12:05:46;;;;;;;2.90;2.70;;;48.40;23.50;;;;;;5000278;28;20451;-85
2022/08/03 12:08:15;;;;;;;2.70;2.50;;;47.40;23.90;;;;;;5002151;28;20479;-84
2022/08/03 12:10:52;;;;;;;2.97;2.30;;;46.70;24.30;;;;;;4996019;28;20455;-84
2022/08/03 12:16:51;;;;;;;5.00;2.37;;;44.90;25.80;;;;;;4993510;28;20448;-95
2022/08/03 12:19:52;;;;;;;3.77;2.13;;;45.60;25.70;;;;;;4868637;29;20498;-93
2022/08/03 12:25:50;;;;;;;2.73;2.20;;;44.40;26.10;;;;;;4931893;29;20579;-91
2022/08/03 12:44:55;;;;;;;3.00;2.50;;;44.40;26.50;;;;;;5540502;23;20500;-81
2022/08/03 12:47:25;;;;;;;3.17;2.73;;;45.70;25.40;;;;;;4990659;28;20496;-90
2022/08/03 12:49:53;;;;;;;2.20;2.10;;;45.90;25.10;;;;;;4978631;28;20433;-81
2022/08/03 12:52:21;;;;;;;2.20;2.00;;;45.30;25.60;;;;;;4979154;28;20518;-82
2022/08/03 12:54:55;;;;;;;3.90;2.93;;;45.50;25.50;;;;;;4983724;28;20555;-80
2022/08/03 12:57:21;;;;;;;2.57;2.37;;;45.40;25.70;;;;;;4986520;28;20475;-79
2022/08/03 12:59:48;;;;;;;2.20;2.00;;;46.40;25.10;;;;;;4978293;28;20440;-82
2022/08/03 13:02:18;;;;;;;3.97;1.90;;;46.10;25.10;;;;;;4977957;28;20508;-82
2022/08/03 13:04:46;;;;;;;2.30;2.10;;;47.00;24.70;;;;;;4978997;28;20468;-82
2022/08/03 13:07:13;;;;;;;2.40;1.90;;;47.60;24.10;;;;;;4979928;28;20468;-82
2022/08/03 13:09:44;;;;;;;2.73;2.37;;;46.80;24.10;;;;;;4980529;28;20512;-83
2022/08/03 13:12:13;;;;;;;3.03;2.60;;;46.90;24.20;;;;;;4982028;28;20453;-81
2022/08/03 13:14:40;;;;;;;2.73;2.37;;;46.40;24.60;;;;;;4977749;28;20464;-83
2022/08/03 13:17:07;;;;;;;3.80;2.50;;;46.00;24.70;;;;;;4977013;28;20849;-83
2022/08/03 13:19:36;;;;;;;2.27;2.07;;;44.30;26.10;;;;;;4977014;28;20458;-83
2022/08/03 13:22:12;;;;;;;2.40;2.20;;;44.70;26.10;;;;;;4976459;28;20572;-83
2022/08/03 13:24:38;;;;;;;2.90;2.70;;;45.50;25.40;;;;;;4976847;28;20464;-81
2022/08/03 13:27:06;;;;;;;2.63;2.40;;;46.00;25.20;;;;;;4970537;28;20480;-82
2022/08/03 13:29:33;;;;;;;2.30;1.80;;;44.50;26.10;;;;;;4975684;28;20463;-82